createdAt,value
2022-09-13T00:00:52.936Z,0.00
2022-09-13T00:01:57.371Z,0.00
2022-09-13T00:03:01.780Z,0.00
2022-09-13T00:04:06.204Z,0.00
2022-09-13T00:05:10.632Z,0.00
2022-09-13T00:06:15.066Z,0.00
2022-09-13T00:07:19.486Z,0.00
2022-09-13T00:08:23.913Z,0.00
2022-09-13T00:09:28.344Z,0.00
2022-09-13T00:10:32.796Z,0.00
2022-09-13T00:11:37.266Z,0.00
2022-09-13T00:12:41.759Z,0.00
2022-09-13T00:13:46.186Z,0.00
2022-09-13T00:14:50.615Z,0.00
2022-09-13T00:15:55.070Z,0.00
2022-09-13T00:16:59.496Z,0.00
2022-09-13T00:18:03.928Z,0.00
2022-09-13T00:19:08.358Z,0.00
2022-09-13T00:20:12.788Z,0.00
2022-09-13T00:21:17.245Z,0.00
2022-09-13T00:22:21.669Z,0.00
2022-09-13T00:23:26.095Z,0.00
2022-09-13T00:24:30.518Z,0.00
2022-09-13T00:25:34.978Z,0.00
2022-09-13T00:26:39.406Z,0.00
2022-09-13T00:27:43.829Z,0.00
2022-09-13T00:28:48.383Z,0.00
2022-09-13T00:29:52.698Z,0.00
2022-09-13T00:30:57.150Z,0.00
2022-09-13T00:32:01.612Z,0.00
2022-09-13T00:33:05.999Z,0.00
2022-09-13T00:34:10.430Z,0.00
2022-09-13T00:35:14.892Z,0.00
2022-09-13T00:36:19.320Z,0.00
2022-09-13T00:37:23.748Z,0.00
2022-09-13T00:38:28.181Z,0.00
2022-09-13T00:39:32.611Z,0.00
2022-09-13T00:40:37.061Z,0.00
2022-09-13T00:41:41.482Z,0.00
2022-09-13T00:42:45.921Z,0.00
2022-09-13T00:43:50.341Z,0.00
2022-09-13T00:44:54.771Z,0.00
2022-09-13T00:45:59.264Z,0.00
2022-09-13T00:47:03.656Z,0.00
2022-09-13T00:48:08.089Z,0.00
2022-09-13T00:49:12.521Z,0.00
2022-09-13T00:50:16.963Z,0.00
2022-09-13T00:51:21.417Z,0.00
2022-09-13T00:52:25.859Z,0.00
2022-09-13T00:53:30.293Z,0.00
2022-09-13T00:54:34.721Z,0.00
2022-09-13T00:55:39.176Z,0.00
2022-09-13T00:56:43.601Z,0.00
2022-09-13T00:57:48.035Z,0.00
2022-09-13T00:58:52.452Z,0.00
2022-09-13T00:59:56.894Z,0.00
2022-09-13T01:01:01.363Z,0.00
2022-09-13T01:02:05.805Z,0.00
2022-09-13T01:03:10.185Z,0.00
2022-09-13T01:04:14.628Z,0.00
2022-09-13T01:05:19.053Z,0.00
2022-09-13T01:06:23.504Z,0.00
2022-09-13T01:07:27.933Z,0.00
2022-09-13T01:08:32.374Z,0.00
2022-09-13T01:09:36.808Z,0.00
2022-09-13T01:10:41.264Z,0.00
2022-09-13T01:11:45.694Z,0.00
2022-09-13T01:12:50.135Z,0.00
2022-09-13T01:13:54.564Z,0.00
2022-09-13T01:14:59.006Z,0.00
2022-09-13T01:16:03.497Z,0.00
2022-09-13T01:17:07.879Z,0.00
2022-09-13T01:18:12.307Z,0.00
2022-09-13T01:19:16.735Z,0.00
2022-09-13T01:20:21.156Z,0.00
2022-09-13T01:21:25.616Z,0.00
2022-09-13T01:22:30.047Z,0.00
2022-09-13T01:23:34.466Z,0.00
2022-09-13T01:24:38.897Z,0.00
2022-09-13T01:25:43.316Z,0.00
2022-09-13T01:26:47.757Z,0.00
2022-09-13T01:27:52.187Z,0.00
2022-09-13T01:28:56.607Z,0.00
2022-09-13T01:30:01.038Z,0.00
2022-09-13T01:31:05.489Z,0.00
2022-09-13T01:32:09.920Z,0.00
2022-09-13T01:33:14.338Z,0.00
2022-09-13T01:34:18.768Z,0.00
2022-09-13T01:35:23.187Z,0.00
2022-09-13T01:36:27.638Z,0.00
2022-09-13T01:37:32.070Z,0.00
2022-09-13T01:38:36.488Z,0.00
2022-09-13T01:39:40.933Z,0.00
2022-09-13T01:40:45.348Z,0.00
2022-09-13T01:41:49.799Z,0.00
2022-09-13T01:42:54.219Z,0.00
2022-09-13T01:43:58.647Z,0.00
2022-09-13T01:45:03.082Z,0.00
2022-09-13T01:46:07.555Z,0.00
2022-09-13T01:47:11.950Z,0.00
2022-09-13T01:48:16.369Z,0.00
2022-09-13T01:49:20.801Z,0.00
2022-09-13T01:50:25.222Z,0.00
2022-09-13T01:51:29.670Z,0.00
2022-09-13T01:52:34.092Z,0.00
2022-09-13T01:53:38.522Z,0.00
2022-09-13T01:54:43.068Z,0.00
2022-09-13T01:55:47.443Z,0.00
2022-09-13T01:56:51.889Z,0.00
2022-09-13T01:57:56.321Z,0.00
2022-09-13T01:59:00.740Z,0.00
2022-09-13T02:00:05.173Z,0.00
2022-09-13T02:01:09.624Z,0.00
2022-09-13T02:02:14.158Z,0.00
2022-09-13T02:03:18.467Z,0.00
2022-09-13T02:04:22.887Z,0.00
2022-09-13T02:05:27.293Z,0.00
2022-09-13T02:06:31.723Z,0.00
2022-09-13T02:07:36.163Z,0.00
2022-09-13T02:08:40.582Z,0.00
2022-09-13T02:09:45.001Z,0.00
2022-09-13T02:10:49.423Z,0.00
2022-09-13T02:11:53.863Z,0.00
2022-09-13T02:12:58.286Z,0.00
2022-09-13T02:14:02.713Z,0.00
2022-09-13T02:15:07.135Z,0.00
2022-09-13T02:16:11.603Z,0.00
2022-09-13T02:17:16.016Z,0.00
2022-09-13T02:18:20.444Z,0.00
2022-09-13T02:19:24.865Z,0.00
2022-09-13T02:20:29.284Z,0.00
2022-09-13T02:21:33.706Z,0.00
2022-09-13T02:22:38.160Z,0.00
2022-09-13T02:23:42.658Z,0.00
2022-09-13T02:24:46.996Z,0.00
2022-09-13T02:25:51.425Z,0.00
2022-09-13T02:26:55.851Z,0.00
2022-09-13T02:28:00.296Z,0.00
2022-09-13T02:29:05.532Z,0.00
2022-09-13T02:30:09.959Z,0.00
2022-09-13T02:31:14.430Z,0.00
2022-09-13T02:32:18.786Z,0.00
2022-09-13T02:33:23.225Z,0.00
2022-09-13T02:34:27.647Z,0.00
2022-09-13T02:35:32.066Z,0.00
2022-09-13T02:36:36.485Z,0.00
2022-09-13T02:37:40.936Z,0.00
2022-09-13T02:38:45.386Z,0.00
2022-09-13T02:39:49.845Z,0.00
2022-09-13T02:40:54.216Z,0.00
2022-09-13T02:41:58.637Z,0.00
2022-09-13T02:43:03.077Z,0.00
2022-09-13T02:44:07.515Z,0.00
2022-09-13T02:45:11.927Z,0.00
2022-09-13T02:46:16.347Z,0.00
2022-09-13T02:47:20.776Z,0.00
2022-09-13T02:48:25.222Z,0.00
2022-09-13T02:49:29.638Z,0.00
2022-09-13T02:50:34.068Z,0.00
2022-09-13T02:51:38.487Z,0.00
2022-09-13T02:52:42.914Z,0.00
2022-09-13T02:53:47.359Z,0.00
2022-09-13T02:54:51.778Z,0.00
2022-09-13T02:55:56.200Z,0.00
2022-09-13T02:57:00.631Z,0.00
2022-09-13T02:58:05.071Z,0.00
2022-09-13T02:59:09.499Z,0.00
2022-09-13T03:00:13.931Z,0.00
2022-09-13T03:01:18.385Z,0.00
2022-09-13T03:02:22.837Z,0.00
2022-09-13T03:03:27.229Z,0.00
2022-09-13T03:04:31.663Z,0.00
2022-09-13T03:05:36.080Z,0.00
2022-09-13T03:06:40.500Z,0.00
2022-09-13T03:07:44.921Z,0.00
2022-09-13T03:08:49.381Z,0.00
2022-09-13T03:09:53.811Z,0.00
2022-09-13T03:10:58.253Z,0.00
2022-09-13T03:12:02.691Z,0.00
2022-09-13T03:13:07.123Z,0.00
2022-09-13T03:14:11.584Z,0.00
2022-09-13T03:15:16.013Z,0.00
2022-09-13T03:16:20.525Z,0.00
2022-09-13T03:17:24.871Z,0.00
2022-09-13T03:18:29.332Z,0.00
2022-09-13T03:19:33.753Z,0.00
2022-09-13T03:20:38.182Z,0.00
2022-09-13T03:21:42.611Z,0.00
2022-09-13T03:22:47.044Z,0.00
2022-09-13T03:23:51.494Z,0.00
2022-09-13T03:24:55.922Z,0.00
2022-09-13T03:26:00.351Z,0.00
2022-09-13T03:27:04.787Z,0.00
2022-09-13T03:28:09.212Z,0.00
2022-09-13T03:29:13.657Z,0.00
2022-09-13T03:30:18.081Z,0.00
2022-09-13T03:31:22.559Z,0.00
2022-09-13T03:32:26.984Z,0.00
2022-09-13T03:33:31.374Z,0.00
2022-09-13T03:34:35.828Z,0.00
2022-09-13T03:35:40.251Z,0.00
2022-09-13T03:36:44.673Z,0.00
2022-09-13T03:37:49.095Z,0.00
2022-09-13T03:38:53.550Z,0.00
2022-09-13T03:39:58.048Z,0.00
2022-09-13T03:41:02.407Z,0.00
2022-09-13T03:42:06.834Z,0.00
2022-09-13T03:43:11.256Z,0.00
2022-09-13T03:44:15.705Z,0.00
2022-09-13T03:45:20.126Z,0.00
2022-09-13T03:46:24.547Z,0.00
2022-09-13T03:47:28.975Z,0.00
2022-09-13T03:48:33.405Z,0.00
2022-09-13T03:49:37.846Z,0.00
2022-09-13T03:50:42.349Z,0.00
2022-09-13T03:51:46.774Z,0.00
2022-09-13T03:52:51.196Z,0.00
2022-09-13T03:53:55.616Z,0.00
2022-09-13T03:55:00.092Z,0.00
2022-09-13T03:56:04.516Z,0.00
2022-09-13T03:57:08.949Z,0.00
2022-09-13T03:58:13.369Z,0.00
2022-09-13T03:59:17.838Z,0.00
2022-09-13T04:00:22.265Z,0.00
2022-09-13T04:01:26.707Z,0.00
2022-09-13T04:02:31.192Z,0.00
2022-09-13T04:03:35.548Z,0.00
2022-09-13T04:04:39.988Z,0.00
2022-09-13T04:05:44.419Z,0.00
2022-09-13T04:06:48.847Z,0.00
2022-09-13T04:07:53.288Z,0.00
2022-09-13T04:08:57.708Z,0.00
2022-09-13T04:10:02.205Z,0.00
2022-09-13T04:11:06.609Z,0.00
2022-09-13T04:12:11.049Z,0.00
2022-09-13T04:13:15.481Z,0.00
2022-09-13T04:14:19.909Z,0.00
2022-09-13T04:15:24.370Z,0.00
2022-09-13T04:16:28.829Z,0.00
2022-09-13T04:17:33.229Z,0.00
2022-09-13T04:18:37.658Z,0.00
2022-09-13T04:19:42.115Z,0.00
2022-09-13T04:20:46.541Z,0.00
2022-09-13T04:21:50.962Z,0.00
2022-09-13T04:22:55.391Z,0.00
2022-09-13T04:23:59.821Z,0.00
2022-09-13T04:25:04.281Z,0.00
2022-09-13T04:26:08.710Z,0.00
2022-09-13T04:27:13.141Z,0.00
2022-09-13T04:28:17.560Z,0.00
2022-09-13T04:29:22.002Z,0.00
2022-09-13T04:30:26.444Z,0.00
2022-09-13T04:31:30.883Z,0.00
2022-09-13T04:32:35.302Z,0.00
2022-09-13T04:33:39.723Z,0.00
2022-09-13T04:34:44.153Z,0.00
2022-09-13T04:35:48.601Z,0.00
2022-09-13T04:36:53.042Z,0.00
2022-09-13T04:37:57.459Z,0.00
2022-09-13T04:39:01.896Z,0.00
2022-09-13T04:40:06.396Z,0.00
2022-09-13T04:41:10.797Z,0.00
2022-09-13T04:42:15.224Z,4.00
2022-09-13T04:43:19.654Z,4.00
2022-09-13T04:59:36.201Z,32.00
2022-09-13T05:00:40.606Z,36.00
2022-09-13T05:01:45.146Z,40.00
2022-09-13T05:02:49.417Z,44.00
2022-09-13T05:03:53.814Z,44.00
2022-09-13T05:04:58.231Z,52.00
2022-09-13T05:06:02.625Z,56.00
2022-09-13T05:07:07.012Z,64.00
2022-09-13T05:08:11.393Z,68.00
2022-09-13T05:09:15.781Z,72.00
2022-09-13T05:10:20.201Z,80.00
2022-09-13T05:11:24.574Z,80.00
2022-09-13T05:12:28.961Z,88.00
2022-09-13T05:13:33.335Z,92.00
2022-09-13T05:14:37.744Z,96.00
2022-09-13T05:15:42.148Z,108.00
2022-09-13T05:16:46.504Z,112.00
2022-09-13T05:17:50.887Z,120.00
2022-09-13T05:18:55.272Z,132.00
2022-09-13T05:19:59.675Z,140.00
2022-09-13T05:21:04.059Z,148.00
2022-09-13T05:22:08.435Z,160.00
2022-09-13T05:23:12.814Z,180.00
2022-09-13T05:24:17.213Z,208.00
2022-09-13T05:25:25.878Z,232.00
2022-09-13T05:26:25.984Z,260.00
2022-09-13T05:27:30.355Z,284.00
2022-09-13T05:28:38.465Z,316.00
2022-09-13T05:29:42.886Z,340.00
2022-09-13T05:30:47.334Z,368.00
2022-09-13T05:33:17.506Z,408.00
2022-09-13T05:34:21.976Z,440.00
2022-09-13T05:35:26.479Z,444.00
2022-09-13T05:36:30.944Z,468.00
2022-09-13T05:37:35.380Z,468.00
2022-09-13T05:38:39.859Z,468.00
2022-09-13T05:40:09.746Z,472.00
2022-09-13T05:40:48.809Z,480.00
2022-09-13T05:41:53.203Z,464.00
2022-09-13T05:42:57.689Z,464.00
2022-09-13T05:44:10.396Z,440.00
2022-09-13T05:45:06.632Z,436.00
2022-09-13T05:46:11.148Z,488.00
2022-09-13T05:47:15.538Z,480.00
2022-09-13T05:48:19.969Z,544.00
2022-09-13T05:49:24.439Z,524.00
2022-09-13T05:50:56.707Z,528.00
2022-09-13T05:51:33.368Z,536.00
2022-09-13T05:52:37.778Z,548.00
2022-09-13T05:53:42.219Z,616.00
2022-09-13T05:54:46.690Z,636.00
2022-09-13T05:55:51.130Z,676.00
2022-09-13T05:56:55.569Z,772.00
2022-09-13T05:58:00.013Z,788.00
2022-09-13T05:59:04.454Z,840.00
2022-09-13T06:00:08.920Z,816.00
2022-09-13T06:01:13.380Z,848.00
2022-09-13T06:02:17.842Z,876.00
2022-09-13T06:03:22.261Z,884.00
2022-09-13T06:04:26.738Z,876.00
2022-09-13T06:05:31.949Z,856.00
2022-09-13T06:06:35.644Z,864.00
2022-09-13T06:07:40.072Z,840.00
2022-09-13T06:08:44.522Z,820.00
2022-09-13T06:09:49.006Z,784.00
2022-09-13T06:10:53.442Z,732.00
2022-09-13T06:11:57.903Z,720.00
2022-09-13T06:13:02.343Z,740.00
2022-09-13T06:14:06.814Z,796.00
2022-09-13T06:15:11.282Z,832.00
2022-09-13T06:16:15.784Z,820.00
2022-09-13T06:17:20.192Z,876.00
2022-09-13T06:18:24.633Z,892.00
2022-09-13T06:19:29.116Z,896.00
2022-09-13T06:20:33.555Z,896.00
2022-09-13T06:21:38.013Z,896.00
2022-09-13T06:22:42.455Z,896.00
2022-09-13T06:23:46.971Z,896.00
2022-09-13T06:24:51.447Z,1008.00
2022-09-13T06:25:55.895Z,960.00
2022-09-13T06:27:00.354Z,1008.00
2022-09-13T06:28:04.802Z,1072.00
2022-09-13T06:29:09.244Z,1148.00
2022-09-13T06:30:13.744Z,1204.00
2022-09-13T06:31:18.306Z,1116.00
2022-09-13T06:32:22.648Z,1232.00
2022-09-13T06:33:27.095Z,1300.00
2022-09-13T06:34:31.631Z,1308.00
2022-09-13T06:35:36.015Z,1304.00
2022-09-13T06:36:40.474Z,1344.00
2022-09-13T06:37:44.924Z,1324.00
2022-09-13T06:38:49.524Z,1292.00
2022-09-13T06:39:53.907Z,1352.00
2022-09-13T06:40:58.319Z,1388.00
2022-09-13T06:42:02.775Z,1492.00
2022-09-13T06:43:07.258Z,1512.00
2022-09-13T06:44:11.696Z,1524.00
2022-09-13T06:45:16.169Z,1568.00
2022-09-13T06:46:24.937Z,1676.00
2022-09-13T06:47:25.084Z,1672.00
2022-09-13T06:48:29.529Z,1660.00
2022-09-13T06:49:34.007Z,1676.00
2022-09-13T06:50:38.477Z,1740.00
2022-09-13T06:51:42.930Z,1848.00
2022-09-13T06:52:47.382Z,1860.00
2022-09-13T06:53:51.830Z,1916.00
2022-09-13T06:54:56.304Z,1968.00
2022-09-13T06:56:00.758Z,1976.00
2022-09-13T06:57:05.203Z,2140.00
2022-09-13T06:58:09.649Z,2364.00
2022-09-13T06:59:14.112Z,2452.00
2022-09-13T07:00:18.579Z,2616.00
2022-09-13T07:01:23.194Z,2632.00
2022-09-13T07:02:27.624Z,2640.00
2022-09-13T07:03:32.038Z,2728.00
2022-09-13T07:04:36.492Z,2760.00
2022-09-13T07:05:40.979Z,2808.00
2022-09-13T07:06:45.431Z,2808.00
2022-09-13T07:07:49.879Z,2784.00
2022-09-13T07:08:54.336Z,2844.00
2022-09-13T07:09:58.804Z,2912.00
2022-09-13T07:11:03.672Z,3032.00
2022-09-13T07:12:08.110Z,3156.00
2022-09-13T07:13:12.551Z,3252.00
2022-09-13T07:14:16.991Z,3432.00
2022-09-13T07:15:21.481Z,3548.00
2022-09-13T07:16:25.945Z,3792.00
2022-09-13T07:17:31.603Z,3836.00
2022-09-13T07:18:34.843Z,3956.00
2022-09-13T07:19:39.300Z,3916.00
2022-09-13T07:20:43.783Z,3952.00
2022-09-13T07:21:48.232Z,4092.00
2022-09-13T07:22:52.704Z,4056.00
2022-09-13T07:23:57.151Z,4452.00
2022-09-13T07:25:01.941Z,4380.00
2022-09-13T07:26:06.404Z,4408.00
2022-09-13T07:27:11.423Z,4588.00
2022-09-13T07:28:15.879Z,4548.00
2022-09-13T07:29:20.323Z,4376.00
2022-09-13T07:30:25.287Z,4540.00
2022-09-13T07:31:29.837Z,4248.00
2022-09-13T07:32:34.223Z,4128.00
2022-09-13T07:37:41.475Z,4044.00
2022-09-13T07:38:45.950Z,4584.00
2022-09-13T07:39:50.427Z,4348.00
2022-09-13T07:40:55.797Z,4360.00
2022-09-13T07:42:00.225Z,4324.00
2022-09-13T07:45:57.450Z,4408.00
2022-09-13T07:47:10.051Z,4180.00
2022-09-13T07:48:24.259Z,4200.00
2022-09-13T07:49:39.405Z,3984.00
2022-09-13T07:50:44.703Z,3800.00
2022-09-13T07:52:00.031Z,4112.00
2022-09-13T07:53:04.267Z,4016.00
2022-09-13T07:55:35.502Z,4304.00
2022-09-13T07:56:39.743Z,4184.00
2022-09-13T07:57:44.193Z,4180.00
2022-09-13T07:58:48.716Z,4208.00
2022-09-13T10:19:50.728Z,8272.00
2022-09-13T10:20:56.690Z,7248.00
2022-09-13T10:22:01.469Z,7008.00
2022-09-13T10:24:32.145Z,7212.00
2022-09-13T10:25:36.578Z,7256.00
2022-09-13T10:27:47.007Z,8040.00
2022-09-13T10:28:51.474Z,7676.00
2022-09-13T10:29:56.207Z,7472.00
2022-09-13T10:31:00.829Z,8164.00
2022-09-13T10:32:07.877Z,8312.00
2022-09-13T10:33:12.412Z,7132.00
2022-09-13T10:34:16.851Z,7316.00
2022-09-13T10:35:21.407Z,7268.00
2022-09-13T10:36:48.578Z,7812.00
2022-09-13T10:37:39.881Z,8000.00
2022-09-13T10:38:46.247Z,8752.00
2022-09-13T10:39:48.963Z,7660.00
2022-09-13T10:40:53.698Z,7684.00
2022-09-13T10:41:58.591Z,7576.00
2022-09-13T10:43:03.063Z,7668.00
2022-09-13T10:44:09.721Z,7760.00
2022-09-13T10:45:11.939Z,8528.00
2022-09-13T10:46:16.424Z,7700.00
2022-09-13T10:47:20.878Z,7380.00
2022-09-13T10:48:25.330Z,7344.00
2022-09-13T10:49:29.800Z,7412.00
2022-09-13T10:50:34.409Z,7572.00
2022-09-13T10:51:38.906Z,7364.00
2022-09-13T10:52:43.341Z,7112.00
2022-09-13T10:53:47.790Z,6640.00
2022-09-13T10:54:52.254Z,6676.00
2022-09-13T10:55:56.711Z,7088.00
2022-09-13T10:57:01.181Z,6720.00
2022-09-13T10:58:05.641Z,6580.00
2022-09-13T10:59:10.116Z,6600.00
2022-09-13T11:00:14.562Z,6644.00
2022-09-13T11:01:19.054Z,6968.00
2022-09-13T11:02:23.514Z,7400.00
2022-09-13T11:03:27.963Z,7712.00
2022-09-13T11:04:32.472Z,7556.00
2022-09-13T11:05:36.871Z,8444.00
2022-09-13T11:06:41.368Z,9024.00
2022-09-13T11:07:45.832Z,8784.00
2022-09-13T11:08:50.271Z,8920.00
2022-09-13T11:09:54.726Z,8756.00
2022-09-13T11:10:59.172Z,9556.00
2022-09-13T11:12:04.195Z,9236.00
2022-09-13T11:13:08.103Z,10072.00
2022-09-13T11:14:12.544Z,10536.00
2022-09-13T11:15:16.984Z,10476.00
2022-09-13T11:16:21.601Z,10020.00
2022-09-13T11:17:26.050Z,9784.00
2022-09-13T11:18:39.625Z,9792.00
2022-09-13T12:02:59.856Z,11584.00
2022-09-13T12:04:04.496Z,11952.00
2022-09-13T12:14:06.142Z,13152.00
2022-09-13T12:18:03.244Z,9788.00
2022-09-13T12:25:04.074Z,9396.00
2022-09-13T12:33:54.637Z,3204.00
2022-09-13T12:36:33.622Z,3372.00
2022-09-13T12:37:38.857Z,3924.00
2022-09-13T12:38:43.326Z,4324.00
2022-09-13T12:39:47.852Z,5372.00
2022-09-13T12:40:52.257Z,6036.00
2022-09-13T12:41:56.769Z,6304.00
2022-09-13T12:43:01.196Z,6392.00
2022-09-13T12:44:05.671Z,6972.00
2022-09-13T12:45:10.124Z,7864.00
2022-09-13T12:46:14.615Z,9796.00
2022-09-13T12:47:19.029Z,13988.00
2022-09-13T12:48:23.474Z,10368.00
2022-09-13T12:49:27.914Z,8992.00
2022-09-13T12:50:47.636Z,8432.00
2022-09-13T12:51:36.808Z,8340.00
2022-09-13T12:52:41.304Z,8932.00
2022-09-13T12:53:45.855Z,7912.00
2022-09-13T12:54:50.178Z,7728.00
2022-09-13T12:55:54.626Z,7468.00
2022-09-13T12:56:59.079Z,7692.00
2022-09-13T12:58:03.549Z,8828.00
2022-09-13T12:59:07.989Z,9316.00
2022-09-13T13:00:12.451Z,8052.00
2022-09-13T13:01:16.964Z,7072.00
2022-09-13T13:02:21.371Z,6400.00
2022-09-13T13:03:25.836Z,5756.00
2022-09-13T13:04:30.258Z,5044.00
2022-09-13T13:05:34.779Z,5056.00
2022-09-13T13:06:39.231Z,5172.00
2022-09-13T13:07:43.690Z,5484.00
2022-09-13T13:08:48.129Z,4928.00
2022-09-13T13:09:52.590Z,4664.00
2022-09-13T13:10:57.048Z,4900.00
2022-09-13T13:12:01.489Z,5228.00
2022-09-13T13:13:05.960Z,5604.00
2022-09-13T13:14:10.401Z,5908.00
2022-09-13T13:15:14.848Z,6424.00
2022-09-13T13:16:19.307Z,7780.00
2022-09-13T13:17:23.733Z,9472.00
2022-09-13T13:18:28.201Z,12008.00
2022-09-13T13:19:32.635Z,13048.00
2022-09-13T13:20:37.091Z,11868.00
2022-09-13T13:21:41.522Z,11108.00
2022-09-13T13:22:45.991Z,9680.00
2022-09-13T13:23:50.434Z,9292.00
2022-09-13T13:24:54.871Z,9436.00
2022-09-13T13:25:59.310Z,7872.00
2022-09-13T13:27:03.753Z,7452.00
2022-09-13T13:28:08.214Z,7672.00
2022-09-13T13:29:12.674Z,7592.00
2022-09-13T13:30:17.111Z,7912.00
2022-09-13T13:31:21.581Z,8420.00
2022-09-13T13:32:26.121Z,7896.00
2022-09-13T13:33:30.583Z,7124.00
2022-09-13T13:34:35.033Z,6688.00
2022-09-13T13:35:39.473Z,6584.00
2022-09-13T13:36:43.906Z,6428.00
2022-09-13T13:37:48.375Z,6492.00
2022-09-13T13:38:52.803Z,6568.00
2022-09-13T13:39:57.302Z,6492.00
2022-09-13T13:41:01.705Z,6192.00
2022-09-13T13:42:06.156Z,6456.00
2022-09-13T13:43:10.623Z,7376.00
2022-09-13T13:44:15.084Z,8124.00
2022-09-13T13:45:19.506Z,5136.00
2022-09-13T13:46:23.962Z,4788.00
2022-09-13T13:47:28.401Z,5408.00
2022-09-13T13:48:32.866Z,6796.00
2022-09-13T13:49:37.367Z,8428.00
2022-09-13T13:50:41.805Z,9596.00
2022-09-13T13:51:46.246Z,9400.00
2022-09-13T13:52:50.695Z,8656.00
2022-09-13T13:53:55.166Z,8016.00
2022-09-13T13:54:59.606Z,8740.00
2022-09-13T13:56:04.051Z,8988.00
2022-09-13T13:57:11.056Z,7560.00
2022-09-13T13:58:12.946Z,7424.00
2022-09-13T13:59:17.389Z,7760.00
2022-09-13T14:00:21.838Z,8052.00
2022-09-13T14:01:26.276Z,8572.00
2022-09-13T14:03:56.605Z,8132.00
2022-09-13T14:05:01.073Z,7848.00
2022-09-13T14:06:05.513Z,7904.00
2022-09-13T14:07:19.425Z,7800.00
2022-09-13T14:08:14.446Z,9688.00
2022-09-13T14:09:18.874Z,9776.00
2022-09-13T14:10:23.331Z,9296.00
2022-09-13T14:11:27.764Z,13308.00
2022-09-13T14:12:32.215Z,10504.00
2022-09-13T14:13:36.667Z,10176.00
2022-09-13T14:14:41.114Z,10656.00
2022-09-13T14:15:45.556Z,11068.00
2022-09-13T14:16:50.050Z,11108.00
2022-09-13T14:17:54.438Z,10876.00
2022-09-13T14:18:58.905Z,11008.00
2022-09-13T14:20:03.348Z,12420.00
2022-09-13T14:21:07.776Z,11428.00
2022-09-13T14:22:12.228Z,12848.00
2022-09-13T14:23:16.666Z,15528.00
2022-09-13T14:24:21.126Z,15312.00
2022-09-13T14:25:25.566Z,16864.00
2022-09-13T14:26:30.018Z,39616.00
2022-09-13T14:27:34.429Z,21344.00
2022-09-13T14:28:38.886Z,25984.00
2022-09-13T14:29:43.309Z,19232.00
2022-09-13T14:30:47.743Z,16128.00
2022-09-13T14:31:52.209Z,21440.00
2022-09-13T14:32:56.607Z,17696.00
2022-09-13T14:34:01.055Z,19680.00
2022-09-13T14:35:05.499Z,22400.00
2022-09-13T14:36:09.927Z,31360.00
2022-09-13T14:37:14.350Z,16736.00
2022-09-13T14:38:18.769Z,22592.00
2022-09-13T14:39:23.228Z,16672.00
2022-09-13T14:40:27.712Z,24352.00
2022-09-13T14:41:32.080Z,28928.00
2022-09-13T14:42:36.500Z,36800.00
2022-09-13T14:43:40.948Z,39104.00
2022-09-13T14:44:45.379Z,37472.00
2022-09-13T14:45:49.809Z,38432.00
2022-09-13T14:46:54.298Z,25248.00
2022-09-13T14:47:58.647Z,39392.00
2022-09-13T14:49:03.081Z,41600.00
2022-09-13T14:51:33.379Z,16896.00
2022-09-13T14:52:37.850Z,18400.00
2022-09-13T14:53:42.348Z,18272.00
2022-09-13T14:54:46.809Z,22016.00
2022-09-13T14:55:51.291Z,25760.00
2022-09-13T14:56:55.760Z,19488.00
2022-09-13T14:58:00.230Z,17856.00
2022-09-13T14:59:04.720Z,16960.00
2022-09-13T15:00:09.211Z,21088.00
2022-09-13T15:01:13.764Z,14688.00
2022-09-13T15:02:18.202Z,13792.00
2022-09-13T15:03:22.663Z,18880.00
2022-09-13T15:04:27.220Z,34592.00
2022-09-13T15:05:31.648Z,14504.00
2022-09-13T15:06:36.136Z,12776.00
2022-09-13T15:07:40.592Z,15152.00
2022-09-13T15:08:45.058Z,18016.00
2022-09-13T15:09:49.550Z,12616.00
2022-09-13T15:10:54.042Z,11400.00
2022-09-13T15:11:58.508Z,30304.00
2022-09-13T15:13:03.055Z,12548.00
2022-09-13T15:14:07.494Z,9960.00
2022-09-13T15:15:11.984Z,7816.00
2022-09-13T15:16:16.526Z,6016.00
2022-09-13T15:17:20.925Z,3572.00
2022-09-13T15:18:25.407Z,3156.00
2022-09-13T15:19:29.898Z,3680.00
2022-09-13T15:20:34.362Z,4736.00
2022-09-13T15:21:38.833Z,6004.00
2022-09-13T15:22:43.301Z,7060.00
2022-09-13T15:23:47.806Z,7392.00
2022-09-13T15:24:52.295Z,7604.00
2022-09-13T15:25:56.777Z,8772.00
2022-09-13T15:27:01.251Z,22368.00
2022-09-13T15:28:05.754Z,18144.00
2022-09-13T15:29:10.254Z,11004.00
2022-09-13T15:30:14.772Z,11700.00
2022-09-13T15:31:19.298Z,24320.00
2022-09-13T15:32:23.731Z,12124.00
2022-09-13T15:33:28.208Z,30496.00
2022-09-13T15:34:32.705Z,11060.00
2022-09-13T15:35:37.193Z,10588.00
2022-09-13T15:36:41.663Z,11836.00
2022-09-13T15:37:46.136Z,14368.00
2022-09-13T15:38:50.615Z,10432.00
2022-09-13T15:39:55.213Z,9012.00
2022-09-13T15:40:59.613Z,10552.00
2022-09-13T15:42:04.086Z,10564.00
2022-09-13T15:43:08.566Z,8752.00
2022-09-13T15:44:13.082Z,7800.00
2022-09-13T15:45:17.558Z,7624.00
2022-09-13T15:46:22.082Z,8820.00
2022-09-13T15:47:26.516Z,9864.00
2022-09-13T15:48:30.997Z,11024.00
2022-09-13T15:49:35.509Z,16096.00
2022-09-13T15:50:39.992Z,11448.00
2022-09-13T15:51:44.489Z,20480.00
2022-09-13T15:52:48.972Z,12340.00
2022-09-13T15:53:53.449Z,13012.00
2022-09-13T15:54:58.008Z,16448.00
2022-09-13T15:56:02.497Z,17984.00
2022-09-13T15:57:06.980Z,16256.00
2022-09-13T15:58:11.496Z,16288.00
2022-09-13T15:59:16.000Z,17472.00
2022-09-13T16:00:20.498Z,13788.00
2022-09-13T16:01:24.997Z,11124.00
2022-09-13T16:02:29.540Z,11300.00
2022-09-13T16:03:33.938Z,14380.00
2022-09-13T16:04:38.458Z,13292.00
2022-09-13T16:05:42.949Z,12120.00
2022-09-13T16:06:47.442Z,10960.00
2022-09-13T16:07:51.924Z,11348.00
2022-09-13T16:08:56.401Z,11420.00
2022-09-13T16:10:00.911Z,10964.00
2022-09-13T16:11:05.390Z,9972.00
2022-09-13T16:12:09.870Z,10040.00
2022-09-13T16:13:14.364Z,8884.00
2022-09-13T16:14:18.870Z,7824.00
2022-09-13T16:15:23.352Z,7900.00
2022-09-13T16:16:27.901Z,7700.00
2022-09-13T16:17:32.321Z,7116.00
2022-09-13T16:18:36.818Z,7116.00
2022-09-13T16:19:41.320Z,8188.00
2022-09-13T16:20:45.809Z,12732.00
2022-09-13T16:21:50.296Z,16512.00
2022-09-13T16:22:54.782Z,16544.00
2022-09-13T16:23:59.261Z,18272.00
2022-09-13T16:25:03.790Z,14176.00
2022-09-13T16:26:08.276Z,13260.00
2022-09-13T16:27:12.773Z,15520.00
2022-09-13T16:28:17.253Z,18400.00
2022-09-13T16:29:21.764Z,14144.00
2022-09-13T16:30:26.254Z,11964.00
2022-09-13T16:31:30.802Z,8088.00
2022-09-13T16:32:35.258Z,8088.00
2022-09-13T16:33:39.734Z,7504.00
2022-09-13T16:34:44.249Z,7752.00
2022-09-13T16:35:48.757Z,8044.00
2022-09-13T16:36:53.234Z,11132.00
2022-09-13T16:37:57.727Z,14016.00
2022-09-13T16:39:02.214Z,18656.00
2022-09-13T16:40:06.797Z,19520.00
2022-09-13T16:41:11.204Z,18848.00
2022-09-13T16:42:15.693Z,18528.00
2022-09-13T16:46:12.335Z,11672.00
2022-09-13T16:47:16.736Z,10892.00
2022-09-13T16:48:21.189Z,12544.00
2022-09-13T16:49:25.682Z,10936.00
2022-09-13T16:50:33.140Z,9476.00
2022-09-13T16:51:34.589Z,8372.00
2022-09-13T16:52:39.041Z,8256.00
2022-09-13T16:53:43.489Z,7576.00
2022-09-13T16:54:47.960Z,6932.00
2022-09-13T16:55:52.410Z,6100.00
2022-09-13T16:56:56.868Z,5836.00
2022-09-13T16:58:01.316Z,4964.00
2022-09-13T16:59:05.764Z,5264.00
2022-09-13T17:00:10.229Z,4672.00
2022-09-13T17:01:14.687Z,4892.00
2022-09-13T17:02:19.273Z,4140.00
2022-09-13T17:03:23.591Z,4068.00
2022-09-13T17:04:28.053Z,3728.00
2022-09-13T17:05:32.540Z,3292.00
2022-09-13T17:06:36.990Z,2788.00
2022-09-13T17:07:41.441Z,2592.00
2022-09-13T17:08:45.894Z,2544.00
2022-09-13T17:09:50.381Z,2388.00
2022-09-13T17:10:54.831Z,2348.00
2022-09-13T17:11:59.289Z,2036.00
2022-09-13T17:13:03.743Z,1944.00
2022-09-13T17:14:08.215Z,1864.00
2022-09-13T17:15:12.689Z,1824.00
2022-09-13T17:16:17.171Z,1708.00
2022-09-13T17:17:21.611Z,1656.00
2022-09-13T17:18:26.054Z,1572.00
2022-09-13T17:19:30.507Z,1364.00
2022-09-13T17:20:34.988Z,1160.00
2022-09-13T17:21:39.440Z,1092.00
2022-09-13T17:22:43.893Z,912.00
2022-09-13T17:23:48.400Z,860.00
2022-09-13T17:24:52.824Z,788.00
2022-09-13T17:25:57.275Z,772.00
2022-09-13T17:27:01.734Z,716.00
2022-09-13T17:28:06.194Z,596.00
2022-09-13T17:29:10.693Z,572.00
2022-09-13T17:30:15.162Z,520.00